createdAt,value
2018-05-10T00:00:31.689Z,95931.58
2018-05-10T00:02:57.563Z,95931.66
2018-05-10T00:05:23.401Z,95930.34
2018-05-10T00:07:49.315Z,95931.54
2018-05-10T00:10:15.085Z,95931.77
2018-05-10T00:12:40.934Z,95922.02
2018-05-10T00:15:06.790Z,95925.03
2018-05-10T00:17:32.652Z,95919.53
2018-05-10T00:19:58.526Z,95919.64
2018-05-10T00:22:24.384Z,95918.94
2018-05-10T00:24:50.243Z,95922.04
2018-05-10T00:27:16.092Z,95922.30
2018-05-10T00:29:41.948Z,95920.66
2018-05-10T00:32:07.880Z,95918.33
2018-05-10T00:34:33.758Z,95921.90
2018-05-10T00:36:59.620Z,95920.55
2018-05-10T00:39:25.492Z,95926.05
2018-05-10T00:41:51.346Z,95914.22
2018-05-10T00:44:17.204Z,95909.29
2018-05-10T00:46:43.073Z,95910.03
2018-05-10T00:49:08.940Z,95912.81
2018-05-10T00:51:34.788Z,95910.81
2018-05-10T00:54:00.725Z,95907.44
2018-05-10T00:56:26.580Z,95911.09
2018-05-10T00:58:52.393Z,95911.30
2018-05-10T01:01:18.240Z,95907.83
2018-05-10T01:03:44.073Z,95912.02
2018-05-10T01:06:09.941Z,95914.34
2018-05-10T01:08:35.784Z,95914.64
2018-05-10T01:11:01.634Z,95906.45
2018-05-10T01:13:27.514Z,95907.33
2018-05-10T01:15:53.394Z,95909.56
2018-05-10T01:18:19.240Z,95904.53
2018-05-10T01:20:45.106Z,95899.81
2018-05-10T01:23:11.005Z,95902.61
2018-05-10T01:25:36.849Z,95909.75
2018-05-10T01:28:02.762Z,95909.87
2018-05-10T01:30:28.615Z,95897.48
2018-05-10T01:32:54.465Z,95906.17
2018-05-10T01:35:32.592Z,95903.20
2018-05-10T01:37:58.484Z,95907.86
2018-05-10T01:40:24.392Z,95909.76
2018-05-10T01:42:50.248Z,95909.52
2018-05-10T01:45:16.087Z,95904.54
2018-05-10T01:47:41.963Z,95907.15
2018-05-10T01:50:07.805Z,95906.08
2018-05-10T01:52:33.653Z,95907.09
2018-05-10T01:54:59.532Z,95903.08
2018-05-10T01:57:25.364Z,95907.37
2018-05-10T01:59:51.225Z,95905.20
2018-05-10T02:02:17.081Z,95897.79
2018-05-10T02:04:42.945Z,95901.77
2018-05-10T02:07:08.842Z,95903.16
2018-05-10T02:09:34.716Z,95910.15
2018-05-10T02:12:00.612Z,95914.23
2018-05-10T02:14:26.500Z,95911.52
2018-05-10T02:16:52.370Z,95910.60
2018-05-10T02:19:18.221Z,95920.52
2018-05-10T02:21:44.109Z,95921.51
2018-05-10T02:24:09.963Z,95921.39
2018-05-10T02:26:35.828Z,95916.05
2018-05-10T02:29:01.677Z,95918.66
2018-05-10T02:31:27.514Z,95927.28
2018-05-10T02:33:53.418Z,95925.94
2018-05-10T02:36:19.355Z,95922.25
2018-05-10T02:38:45.149Z,95922.45
2018-05-10T02:41:10.995Z,95918.59
2018-05-10T02:43:36.848Z,95923.91
2018-05-10T02:46:02.723Z,95925.51
2018-05-10T02:48:28.603Z,95928.05
2018-05-10T02:50:54.492Z,95928.45
2018-05-10T02:53:20.372Z,95932.34
2018-05-10T02:55:46.228Z,95927.45
2018-05-10T02:58:12.104Z,95930.41
2018-05-10T03:00:38.006Z,95935.12
2018-05-10T03:03:03.879Z,95934.01
2018-05-10T03:05:29.701Z,95932.57
2018-05-10T03:07:55.553Z,95918.66
2018-05-10T03:10:21.408Z,95941.80
2018-05-10T03:12:47.254Z,95938.99
2018-05-10T03:15:13.116Z,95945.08
2018-05-10T03:17:38.966Z,95941.42
2018-05-10T03:20:04.860Z,95947.42
2018-05-10T03:22:30.717Z,95957.34
2018-05-10T03:24:56.573Z,95961.25
2018-05-10T03:27:22.426Z,95959.34
2018-05-10T03:29:48.285Z,95956.86
2018-05-10T03:32:14.140Z,95952.67
2018-05-10T03:34:39.992Z,95958.64
2018-05-10T03:37:05.831Z,95957.70
2018-05-10T03:39:31.686Z,95957.19
2018-05-10T03:41:57.549Z,95957.52
2018-05-10T03:44:23.443Z,95956.92
2018-05-10T03:46:49.325Z,95954.36
2018-05-10T03:49:15.204Z,95960.05
2018-05-10T03:51:41.096Z,95957.21
2018-05-10T03:54:06.970Z,95958.42
2018-05-10T03:56:32.821Z,95954.95
2018-05-10T03:58:58.642Z,95958.39
2018-05-10T04:01:24.500Z,95958.23
2018-05-10T04:04:02.695Z,95962.44
2018-05-10T04:06:40.892Z,95947.97
2018-05-10T04:09:19.775Z,95947.50
2018-05-10T04:11:45.630Z,95965.28
2018-05-10T04:14:11.485Z,95966.77
2018-05-10T04:16:37.369Z,95963.09
2018-05-10T04:19:03.232Z,95966.41
2018-05-10T04:21:29.105Z,95964.73
2018-05-10T04:23:54.928Z,95957.97
2018-05-10T04:26:20.788Z,95960.26
2018-05-10T04:28:46.660Z,95960.61
2018-05-10T04:31:12.529Z,95958.86
2018-05-10T04:33:38.411Z,95960.80
2018-05-10T04:36:04.269Z,95962.95
2018-05-10T04:38:30.140Z,95963.50
2018-05-10T04:40:55.987Z,95961.08
2018-05-10T04:43:21.831Z,95968.72
2018-05-10T04:45:47.670Z,95969.91
2018-05-10T04:48:13.516Z,95974.52
2018-05-10T04:50:39.377Z,95979.34
2018-05-10T04:53:05.276Z,95985.50
2018-05-10T04:55:31.149Z,95980.03
2018-05-10T04:57:56.985Z,95986.67
2018-05-10T05:00:22.802Z,95986.96
2018-05-10T05:02:48.657Z,95975.95
2018-05-10T05:05:14.548Z,95987.59
2018-05-10T05:07:40.423Z,95984.73
2018-05-10T05:10:06.299Z,95986.55
2018-05-10T05:12:32.165Z,95986.31
2018-05-10T05:14:58.022Z,95986.48
2018-05-10T05:17:23.873Z,95985.86
2018-05-10T05:19:49.713Z,95982.95
2018-05-10T05:22:15.568Z,95978.32
2018-05-10T05:24:41.429Z,95986.95
2018-05-10T05:27:07.285Z,95982.64
2018-05-10T05:29:33.122Z,95989.42
2018-05-10T05:31:58.987Z,95988.68
2018-05-10T05:34:24.822Z,95984.20
2018-05-10T05:36:50.692Z,95991.83
2018-05-10T05:39:16.501Z,95992.80
2018-05-10T05:41:42.360Z,95998.66
2018-05-10T05:44:08.225Z,96002.89
2018-05-10T05:46:34.078Z,96007.17
2018-05-10T05:48:59.905Z,96007.84
2018-05-10T05:51:25.839Z,96001.45
2018-05-10T05:53:51.698Z,96006.02
2018-05-10T05:56:17.552Z,96007.87
2018-05-10T05:58:43.442Z,96009.14
2018-05-10T06:01:09.305Z,96015.09
2018-05-10T06:03:35.181Z,96021.53
2018-05-10T06:06:01.030Z,96018.66
2018-05-10T06:08:26.902Z,96021.36
2018-05-10T06:10:52.729Z,96019.17
2018-05-10T06:13:18.576Z,96015.16
2018-05-10T06:15:44.414Z,96017.69
2018-05-10T06:18:10.270Z,96019.47
2018-05-10T06:20:36.162Z,96021.55
2018-05-10T06:23:02.018Z,96018.34
2018-05-10T06:25:27.881Z,96016.35
2018-05-10T06:27:53.738Z,96017.20
2018-05-10T06:30:19.585Z,96008.13
2018-05-10T06:32:45.426Z,96020.52
2018-05-10T06:35:11.312Z,96029.50
2018-05-10T06:37:37.173Z,96023.52
2018-05-10T06:40:03.037Z,96031.20
2018-05-10T06:42:28.875Z,96024.78
2018-05-10T06:44:54.748Z,96028.88
2018-05-10T06:47:20.570Z,96026.22
2018-05-10T06:49:46.405Z,96030.41
2018-05-10T06:52:12.249Z,96033.09
2018-05-10T06:54:38.100Z,96036.36
2018-05-10T06:57:03.981Z,96034.05
2018-05-10T06:59:29.834Z,96032.91
2018-05-10T07:01:55.674Z,96033.27
2018-05-10T07:04:21.525Z,96044.17
2018-05-10T07:06:47.391Z,96045.87
2018-05-10T07:09:13.262Z,96045.30
2018-05-10T07:11:39.092Z,96046.09
2018-05-10T07:14:04.920Z,96053.75
2018-05-10T07:16:30.769Z,96057.91
2018-05-10T07:18:56.632Z,96056.85
2018-05-10T07:21:22.569Z,96055.20
2018-05-10T07:23:48.409Z,96053.23
2018-05-10T07:26:14.264Z,96055.32
2018-05-10T07:28:40.158Z,96055.19
2018-05-10T07:31:06.055Z,96061.53
2018-05-10T07:33:31.931Z,96071.27
2018-05-10T07:36:04.944Z,96067.44
2018-05-10T07:38:30.840Z,96073.16
2018-05-10T07:40:56.768Z,96071.31
2018-05-10T07:43:22.631Z,96065.67
2018-05-10T07:45:48.527Z,96070.50
2018-05-10T07:48:14.391Z,96073.00
2018-05-10T07:50:40.262Z,96077.98
2018-05-10T07:53:06.120Z,96078.77
2018-05-10T07:55:31.952Z,96083.36
2018-05-10T07:57:57.804Z,96080.73
2018-05-10T08:00:23.685Z,96078.66
2018-05-10T08:02:49.556Z,96085.47
2018-05-10T08:05:15.428Z,96078.77
2018-05-10T08:07:41.310Z,96082.24
2018-05-10T08:10:07.204Z,96082.42
2018-05-10T08:12:33.029Z,96080.38
2018-05-10T08:14:58.873Z,96081.25
2018-05-10T08:17:24.748Z,96090.27
2018-05-10T08:19:50.572Z,96089.03
2018-05-10T08:22:16.455Z,96089.30
2018-05-10T08:24:42.306Z,96086.70
2018-05-10T08:27:08.185Z,96088.06
2018-05-10T08:29:34.109Z,96087.23
2018-05-10T08:31:59.933Z,96087.09
2018-05-10T08:34:25.806Z,96084.91
2018-05-10T08:36:51.782Z,96089.92
2018-05-10T08:39:17.597Z,96088.12
2018-05-10T08:41:43.488Z,96096.27
2018-05-10T08:44:09.381Z,96100.36
2018-05-10T08:46:35.245Z,96096.53
2018-05-10T08:49:01.097Z,96105.41
2018-05-10T08:51:26.910Z,96102.83
2018-05-10T08:53:52.768Z,96094.16
2018-05-10T08:56:18.618Z,96103.84
2018-05-10T08:58:44.461Z,96108.76
2018-05-10T09:01:10.358Z,96107.29
2018-05-10T09:03:36.188Z,96104.94
2018-05-10T09:06:02.040Z,96107.73
2018-05-10T09:08:27.888Z,96107.97
2018-05-10T09:10:53.737Z,96101.16
2018-05-10T09:13:19.597Z,96103.76
2018-05-10T09:15:45.487Z,96107.63
2018-05-10T09:18:11.349Z,96105.00
2018-05-10T09:20:37.209Z,96112.52
2018-05-10T09:23:03.064Z,96111.00
2018-05-10T09:25:28.917Z,96113.44
2018-05-10T09:27:54.849Z,96108.92
2018-05-10T09:30:20.796Z,96112.30
2018-05-10T09:32:46.648Z,96115.66
2018-05-10T09:35:12.522Z,96107.94
2018-05-10T09:37:38.384Z,96109.28
2018-05-10T09:40:04.241Z,96110.22
2018-05-10T09:42:30.085Z,96111.88
2018-05-10T09:44:55.944Z,96111.69
2018-05-10T09:47:21.811Z,96111.25
2018-05-10T09:49:47.704Z,96118.71
2018-05-10T09:52:13.600Z,96118.41
2018-05-10T09:54:39.438Z,96117.80
2018-05-10T09:57:05.276Z,96117.52
2018-05-10T09:59:31.096Z,96117.77
2018-05-10T10:01:56.942Z,96119.60
2018-05-10T10:04:22.808Z,96122.51
2018-05-10T10:06:48.700Z,96115.00
2018-05-10T10:09:14.572Z,96122.80
2018-05-10T10:11:40.464Z,96123.25
2018-05-10T10:14:06.250Z,96124.19
2018-05-10T10:16:32.125Z,96120.86
2018-05-10T10:18:57.996Z,96122.05
2018-05-10T10:21:23.832Z,96120.03
2018-05-10T10:23:49.693Z,96119.73
2018-05-10T10:26:15.506Z,96111.78
2018-05-10T10:28:41.356Z,96109.97
2018-05-10T10:31:07.181Z,96104.71
2018-05-10T10:33:33.037Z,96099.86
2018-05-10T10:35:58.861Z,96103.24
2018-05-10T10:38:24.752Z,96094.78
2018-05-10T10:40:50.651Z,96101.02
2018-05-10T10:43:16.592Z,96103.20
2018-05-10T10:45:42.456Z,96098.02
2018-05-10T10:48:08.283Z,96104.52
2018-05-10T10:50:34.160Z,96103.23
2018-05-10T10:53:00.097Z,96101.40
2018-05-10T10:55:25.901Z,96096.13
2018-05-10T10:57:51.754Z,96106.73
2018-05-10T11:00:17.651Z,96103.07
2018-05-10T11:02:43.517Z,96099.10
2018-05-10T11:05:09.448Z,96108.38
2018-05-10T11:07:35.313Z,96109.84
2018-05-10T11:10:01.170Z,96107.97
2018-05-10T11:12:27.026Z,96098.42
2018-05-10T11:14:52.899Z,96108.07
2018-05-10T11:17:18.748Z,96115.33
2018-05-10T11:19:44.605Z,96117.78
2018-05-10T11:22:10.463Z,96114.96
2018-05-10T11:24:36.352Z,96116.84
2018-05-10T11:27:02.225Z,96113.22
2018-05-10T11:29:28.135Z,96111.67
2018-05-10T11:31:54.316Z,96107.95
2018-05-10T11:34:20.237Z,96105.73
2018-05-10T11:36:46.100Z,96110.22
2018-05-10T11:39:11.983Z,96105.22
2018-05-10T11:41:37.795Z,96103.84
2018-05-10T11:44:03.627Z,96096.94
2018-05-10T11:46:29.484Z,96106.39
2018-05-10T11:48:55.340Z,96105.99
2018-05-10T11:51:21.203Z,96103.20
2018-05-10T11:53:47.122Z,96094.69
2018-05-10T11:56:13.013Z,96101.25
2018-05-10T11:58:38.868Z,96096.30
2018-05-10T12:01:04.757Z,96103.57
2018-05-10T12:03:30.604Z,96097.44
2018-05-10T12:05:56.505Z,96104.80
2018-05-10T12:08:22.385Z,96100.43
2018-05-10T12:10:48.237Z,96102.59
2018-05-10T12:13:14.112Z,96089.70
2018-05-10T12:15:39.977Z,96107.36
2018-05-10T12:18:05.955Z,96109.43
2018-05-10T12:20:31.833Z,96100.72
2018-05-10T12:22:57.693Z,96106.31
2018-05-10T12:25:23.542Z,96107.00
2018-05-10T12:27:49.393Z,96105.45
2018-05-10T12:30:15.909Z,96106.51
2018-05-10T12:32:41.771Z,96109.73
2018-05-10T12:35:07.625Z,96101.88
2018-05-10T12:37:33.498Z,96097.48
2018-05-10T12:39:59.371Z,96094.84
2018-05-10T12:42:25.185Z,96095.45
2018-05-10T12:44:51.082Z,96097.95
2018-05-10T12:47:16.925Z,96091.08
2018-05-10T12:49:42.792Z,96101.30
2018-05-10T12:52:08.648Z,96100.64
2018-05-10T12:54:34.485Z,96105.84
2018-05-10T12:57:00.381Z,96120.59
2018-05-10T12:59:26.245Z,96123.12
2018-05-10T13:01:52.128Z,96121.48
2018-05-10T13:04:17.957Z,96120.22
2018-05-10T13:06:43.910Z,96126.80
2018-05-10T13:09:09.696Z,96122.54
2018-05-10T13:11:35.587Z,96123.26
2018-05-10T13:14:01.460Z,96134.56
2018-05-10T13:16:27.324Z,96133.39
2018-05-10T13:18:53.180Z,96138.14
2018-05-10T13:21:19.052Z,96137.83
2018-05-10T13:23:51.794Z,96136.12
2018-05-10T13:26:17.641Z,96146.30
2018-05-10T13:28:43.541Z,96148.16
2018-05-10T13:31:09.422Z,96163.70
2018-05-10T13:33:35.297Z,96174.22
2018-05-10T13:36:01.169Z,96193.70
2018-05-10T13:38:27.184Z,96201.83
2018-05-10T13:40:52.953Z,96223.23
2018-05-10T13:43:18.881Z,96225.31
2018-05-10T13:45:44.726Z,96227.65
2018-05-10T13:48:10.611Z,96274.56
2018-05-10T13:50:36.461Z,96282.88
2018-05-10T13:53:02.347Z,96293.75
2018-05-10T13:55:28.176Z,96301.95
2018-05-10T13:57:54.049Z,96310.53
2018-05-10T14:00:19.913Z,96296.84
2018-05-10T14:02:45.750Z,96285.22
2018-05-10T14:05:11.604Z,96292.62
2018-05-10T14:07:37.451Z,96318.12
2018-05-10T14:10:03.453Z,96311.84
2018-05-10T14:12:29.348Z,96308.95
2018-05-10T14:14:55.197Z,96323.19
2018-05-10T14:17:21.051Z,96324.89
2018-05-10T14:19:46.900Z,96329.50
2018-05-10T14:22:12.745Z,96335.69
2018-05-10T14:24:38.668Z,96336.66
2018-05-10T14:27:04.554Z,96336.52
2018-05-10T14:29:30.496Z,96344.95
2018-05-10T14:31:56.368Z,96344.00
2018-05-10T14:34:22.244Z,96345.16
2018-05-10T14:36:48.127Z,96346.02
2018-05-10T14:39:13.990Z,96347.02
2018-05-10T14:41:39.856Z,96354.45
2018-05-10T14:44:05.701Z,96356.24
2018-05-10T14:46:31.683Z,96357.80
2018-05-10T14:48:57.639Z,96365.02
2018-05-10T14:51:23.473Z,96378.00
2018-05-10T14:53:49.334Z,96370.49
2018-05-10T14:56:15.195Z,96375.53
2018-05-10T14:58:41.045Z,96382.89
2018-05-10T15:01:06.913Z,96387.73
2018-05-10T15:03:32.793Z,96396.73
2018-05-10T15:05:58.661Z,96397.66
2018-05-10T15:08:24.517Z,96394.69
2018-05-10T15:10:50.374Z,96390.48
2018-05-10T15:13:16.226Z,96392.23
2018-05-10T15:15:42.123Z,96394.72
2018-05-10T15:18:07.969Z,96402.86
2018-05-10T15:20:33.841Z,96394.18
2018-05-10T15:22:59.696Z,96399.61
2018-05-10T15:25:25.546Z,96406.15
2018-05-10T15:27:51.398Z,96411.80
2018-05-10T15:30:17.340Z,96411.29
2018-05-10T15:32:43.193Z,96415.43
2018-05-10T15:35:09.062Z,96421.82
2018-05-10T15:37:34.894Z,96419.02
2018-05-10T15:40:00.801Z,96425.36
2018-05-10T15:42:26.703Z,96431.55
2018-05-10T15:44:52.593Z,96435.13
2018-05-10T15:47:18.458Z,96440.72
2018-05-10T15:49:44.491Z,96437.20
2018-05-10T15:52:10.242Z,96438.66
2018-05-10T15:54:36.080Z,96441.73
2018-05-10T15:57:01.969Z,96448.31
2018-05-10T15:59:27.880Z,96451.30
2018-05-10T16:01:53.938Z,96447.47
2018-05-10T16:04:19.827Z,96451.00
2018-05-10T16:06:45.749Z,96461.12
2018-05-10T16:09:11.527Z,96468.84
2018-05-10T16:11:37.359Z,96470.03
2018-05-10T16:14:03.253Z,96467.44
2018-05-10T16:16:29.117Z,96466.19
2018-05-10T16:18:54.973Z,96474.00
2018-05-10T16:21:20.847Z,96477.87
2018-05-10T16:23:46.754Z,96482.02
2018-05-10T16:26:12.626Z,96485.25
2018-05-10T16:28:38.496Z,96481.89
2018-05-10T16:31:04.517Z,96481.39
2018-05-10T16:33:30.420Z,96484.06
2018-05-10T16:35:56.228Z,96483.52
2018-05-10T16:38:22.088Z,96489.16
2018-05-10T16:40:48.020Z,96495.39
2018-05-10T16:43:13.937Z,96497.95
2018-05-10T16:45:40.867Z,96498.70
2018-05-10T16:48:06.815Z,96497.38
2018-05-10T16:50:32.678Z,96504.14
2018-05-10T16:52:58.543Z,96513.02
2018-05-10T16:55:24.422Z,96523.50
2018-05-10T16:57:50.307Z,96531.72
2018-05-10T17:00:16.177Z,96538.28
2018-05-10T17:02:42.053Z,96536.14
2018-05-10T17:05:07.925Z,96536.51
2018-05-10T17:07:33.807Z,96544.41
2018-05-10T17:09:59.670Z,96544.73
2018-05-10T17:12:25.544Z,96546.84
2018-05-10T17:14:51.390Z,96549.94
2018-05-10T17:17:17.253Z,96543.29
2018-05-10T17:19:43.090Z,96553.80
2018-05-10T17:22:08.945Z,96566.80
2018-05-10T17:24:34.845Z,96567.42
2018-05-10T17:27:00.706Z,96573.98
2018-05-10T17:29:26.597Z,96577.43
2018-05-10T17:31:52.441Z,96576.66
2018-05-10T17:34:18.302Z,96580.25
2018-05-10T17:36:44.166Z,96580.13
2018-05-10T17:39:10.028Z,96577.14
2018-05-10T17:41:35.995Z,96582.55
2018-05-10T17:44:01.800Z,96584.48
2018-05-10T17:46:27.713Z,96584.05
2018-05-10T17:48:53.576Z,96586.87
2018-05-10T17:51:19.449Z,96591.65
2018-05-10T17:53:45.321Z,96599.03
2018-05-10T17:56:11.220Z,96602.87
2018-05-10T17:58:37.072Z,96610.78
2018-05-10T18:01:03.001Z,96612.56
2018-05-10T18:03:28.871Z,96610.64
2018-05-10T18:05:54.769Z,96616.71
2018-05-10T18:08:20.629Z,96610.41
2018-05-10T18:10:46.532Z,96618.17
2018-05-10T18:13:12.418Z,96625.69
2018-05-10T18:15:38.315Z,96620.25
2018-05-10T18:18:04.215Z,96617.87
2018-05-10T18:20:30.082Z,96621.60
2018-05-10T18:22:56.005Z,96628.79
2018-05-10T18:25:21.886Z,96633.41
2018-05-10T18:27:47.799Z,96636.87
2018-05-10T18:30:13.676Z,96646.72
2018-05-10T18:32:39.553Z,96650.70
2018-05-10T18:35:05.430Z,96650.59
2018-05-10T18:37:31.334Z,96650.06
2018-05-10T18:39:57.185Z,96651.33
2018-05-10T18:42:23.073Z,96653.00
2018-05-10T18:44:48.989Z,96651.31
2018-05-10T18:47:14.878Z,96662.28
2018-05-10T18:49:40.725Z,96669.91
2018-05-10T18:52:06.573Z,96667.79
2018-05-10T18:54:32.540Z,96680.57
2018-05-10T18:56:58.398Z,96689.88
2018-05-10T18:59:24.256Z,96694.23
2018-05-10T19:01:50.234Z,96700.05
2018-05-10T19:04:16.047Z,96702.45
2018-05-10T19:06:41.942Z,96701.70
2018-05-10T19:09:07.837Z,96701.79
2018-05-10T19:11:33.753Z,96722.66
2018-05-10T19:13:59.617Z,96718.14
2018-05-10T19:16:25.498Z,96718.34
2018-05-10T19:18:51.367Z,96730.89
2018-05-10T19:21:17.292Z,96731.91
2018-05-10T19:23:43.164Z,96735.88
2018-05-10T19:26:09.043Z,96743.66
2018-05-10T19:28:35.025Z,96739.10
2018-05-10T19:31:00.948Z,96754.33
2018-05-10T19:33:26.833Z,96752.62
2018-05-10T19:35:52.709Z,96764.12
2018-05-10T19:38:18.573Z,96765.80
2018-05-10T19:40:44.463Z,96766.30
2018-05-10T19:43:10.308Z,96769.14
2018-05-10T19:45:36.246Z,96773.66
2018-05-10T19:48:02.141Z,96777.70
2018-05-10T19:50:28.010Z,96783.61
2018-05-10T19:52:53.876Z,96794.91
2018-05-10T19:55:19.754Z,96795.83
2018-05-10T19:57:45.644Z,96795.90
2018-05-10T20:00:11.543Z,96805.78
2018-05-10T20:02:37.411Z,96811.41
2018-05-10T20:05:03.338Z,96812.25
2018-05-10T20:07:29.206Z,96812.02
2018-05-10T20:09:55.062Z,96819.63
2018-05-10T20:12:20.940Z,96822.19
2018-05-10T20:14:46.793Z,96816.74
2018-05-10T20:17:12.681Z,96837.06
2018-05-10T20:19:38.549Z,96830.88
2018-05-10T20:22:04.426Z,96838.98
2018-05-10T20:24:30.322Z,96846.98
2018-05-10T20:26:56.354Z,96852.22
2018-05-10T20:29:22.262Z,96858.64
2018-05-10T20:31:48.177Z,96862.84
2018-05-10T20:34:14.030Z,96870.07
2018-05-10T20:36:39.920Z,96868.75
2018-05-10T20:39:05.842Z,96876.58
2018-05-10T20:41:31.732Z,96885.27
2018-05-10T20:43:57.621Z,96893.33
2018-05-10T20:46:23.503Z,96901.04
2018-05-10T20:48:49.403Z,96904.00
2018-05-10T20:51:15.301Z,96915.32
2018-05-10T20:53:41.174Z,96904.91
2018-05-10T20:56:07.046Z,96915.75
2018-05-10T20:58:33.033Z,96924.93
2018-05-10T21:01:00.008Z,96929.40
2018-05-10T21:03:25.902Z,96926.94
2018-05-10T21:05:51.789Z,96933.28
2018-05-10T21:08:17.700Z,96926.95
2018-05-10T21:10:43.581Z,96933.75
2018-05-10T21:13:09.510Z,96944.41
2018-05-10T21:15:35.413Z,96948.05
2018-05-10T21:18:01.286Z,96940.06
2018-05-10T21:20:27.150Z,96945.75
2018-05-10T21:22:53.026Z,96943.28
2018-05-10T21:25:19.017Z,96950.56
2018-05-10T21:27:44.889Z,96952.84
2018-05-10T21:30:10.826Z,96953.91
2018-05-10T21:32:36.705Z,96953.63
2018-05-10T21:35:02.637Z,96953.05
2018-05-10T21:37:28.606Z,96950.44
2018-05-10T21:39:54.449Z,96957.41
2018-05-10T21:42:20.300Z,96953.81
2018-05-10T21:44:46.238Z,96958.37
2018-05-10T21:47:12.050Z,96956.70
2018-05-10T21:49:50.358Z,96961.64
2018-05-10T21:52:16.281Z,96965.34
2018-05-10T21:54:42.176Z,96965.18
2018-05-10T21:57:08.042Z,96963.12
2018-05-10T21:59:33.942Z,96959.95
2018-05-10T22:01:59.839Z,96962.78
2018-05-10T22:04:25.758Z,96961.72
2018-05-10T22:06:51.649Z,96958.97
2018-05-10T22:09:17.557Z,96958.28
2018-05-10T22:11:43.405Z,96962.56
2018-05-10T22:14:09.276Z,96966.30
2018-05-10T22:16:35.291Z,96966.55
2018-05-10T22:19:01.292Z,96961.78
2018-05-10T22:21:27.138Z,96960.92
2018-05-10T22:23:53.024Z,96948.75
2018-05-10T22:26:18.947Z,96962.49
2018-05-10T22:28:44.817Z,96971.50
2018-05-10T22:31:10.676Z,96969.94
2018-05-10T22:33:36.569Z,96971.80
2018-05-10T22:36:02.421Z,96970.77
2018-05-10T22:38:28.252Z,96963.17
2018-05-10T22:40:54.090Z,96969.87
2018-05-10T22:43:19.965Z,96968.73
2018-05-10T22:45:45.837Z,96964.33
2018-05-10T22:48:11.713Z,96973.53
2018-05-10T22:50:37.588Z,96969.05
2018-05-10T22:53:03.433Z,96970.06
2018-05-10T22:55:29.296Z,96973.14
2018-05-10T22:57:55.196Z,96975.91
2018-05-10T23:00:21.077Z,96967.23
2018-05-10T23:02:46.941Z,96974.06
2018-05-10T23:05:12.829Z,96977.27
2018-05-10T23:07:38.670Z,96984.05
2018-05-10T23:10:04.525Z,96981.49
2018-05-10T23:12:30.373Z,96978.52
2018-05-10T23:14:56.224Z,96988.61
2018-05-10T23:17:22.196Z,96973.94
2018-05-10T23:19:48.041Z,96984.17
2018-05-10T23:22:13.897Z,96981.78
2018-05-10T23:24:39.758Z,96986.72
2018-05-10T23:27:05.637Z,96986.72
2018-05-10T23:29:31.563Z,96986.73
2018-05-10T23:31:57.398Z,96988.44
2018-05-10T23:34:23.275Z,96983.91
2018-05-10T23:36:49.092Z,96988.98
2018-05-10T23:39:14.970Z,96982.58
2018-05-10T23:41:40.813Z,96985.23
2018-05-10T23:44:06.725Z,96988.45
2018-05-10T23:46:32.555Z,96990.64
2018-05-10T23:48:58.432Z,96987.64
2018-05-10T23:51:24.304Z,96993.13
2018-05-10T23:53:50.194Z,96991.02
2018-05-10T23:56:16.051Z,96992.89
2018-05-10T23:58:41.897Z,96994.40
